createdAt,value
2022-07-25T00:01:13.369Z,14.67
2022-07-25T00:03:42.258Z,11.40
2022-07-25T00:06:13.363Z,11.37
2022-07-25T00:08:45.722Z,12.60
2022-07-25T00:11:14.784Z,17.67
2022-07-25T00:13:43.134Z,12.87
2022-07-25T00:16:11.044Z,13.97
2022-07-25T00:18:38.879Z,13.93
2022-07-25T00:21:07.366Z,14.27
2022-07-25T00:23:35.158Z,13.90
2022-07-25T00:26:02.936Z,15.93
2022-07-25T00:28:32.474Z,13.23
2022-07-25T00:31:00.348Z,14.33
2022-07-25T00:33:28.221Z,16.17
2022-07-25T00:35:56.403Z,14.70
2022-07-25T00:38:39.041Z,16.03
2022-07-25T00:41:07.555Z,14.80
2022-07-25T00:43:36.769Z,17.40
2022-07-25T00:46:04.655Z,15.10
2022-07-25T00:48:33.453Z,11.83
2022-07-25T00:51:01.377Z,16.13
2022-07-25T00:53:29.722Z,11.73
2022-07-25T00:55:58.969Z,13.43
2022-07-25T00:58:26.846Z,14.10
2022-07-25T01:00:56.506Z,15.00
2022-07-25T01:03:24.422Z,13.47
2022-07-25T01:05:53.851Z,12.80
2022-07-25T01:08:23.505Z,11.67
2022-07-25T01:10:51.371Z,14.43
2022-07-25T01:13:19.578Z,15.10
2022-07-25T01:15:48.967Z,17.20
2022-07-25T01:18:18.405Z,19.50
2022-07-25T01:20:48.310Z,15.50
2022-07-25T01:23:16.098Z,15.67
2022-07-25T01:25:44.057Z,18.33
2022-07-25T01:28:12.191Z,14.90
2022-07-25T01:30:40.129Z,14.60
2022-07-25T01:33:07.942Z,16.67
2022-07-25T01:35:40.179Z,20.63
2022-07-25T01:38:12.277Z,15.80
2022-07-25T01:40:40.891Z,14.07
2022-07-25T01:43:09.410Z,15.67
2022-07-25T01:45:37.303Z,23.40
2022-07-25T01:48:05.999Z,15.23
2022-07-25T01:50:33.828Z,15.50
2022-07-25T01:53:01.564Z,15.80
2022-07-25T01:55:31.119Z,16.43
2022-07-25T01:58:00.260Z,14.50
2022-07-25T02:00:28.365Z,14.00
2022-07-25T02:03:10.397Z,14.77
2022-07-25T02:05:38.304Z,14.10
2022-07-25T02:08:06.541Z,13.83
2022-07-25T02:10:36.074Z,14.83
2022-07-25T02:13:05.098Z,14.23
2022-07-25T02:15:32.910Z,22.53
2022-07-25T02:18:01.228Z,15.70
2022-07-25T02:20:29.116Z,14.17
2022-07-25T02:22:56.791Z,13.87
2022-07-25T02:25:25.088Z,15.57
2022-07-25T02:27:54.195Z,13.60
2022-07-25T02:30:22.017Z,16.67
2022-07-25T02:32:50.199Z,19.40
2022-07-25T02:35:17.957Z,12.67
2022-07-25T02:37:45.782Z,14.20
2022-07-25T02:40:14.219Z,13.33
2022-07-25T02:42:42.685Z,17.07
2022-07-25T02:45:12.307Z,15.20
2022-07-25T02:47:40.061Z,13.07
2022-07-25T02:50:09.581Z,15.27
2022-07-25T02:52:42.675Z,14.33
2022-07-25T02:55:11.840Z,11.67
2022-07-25T02:57:39.679Z,11.50
2022-07-25T03:00:09.021Z,14.73
2022-07-25T03:02:38.558Z,12.87
2022-07-25T03:05:08.207Z,15.20
2022-07-25T03:07:36.015Z,16.50
2022-07-25T03:10:11.189Z,13.33
2022-07-25T03:12:40.070Z,11.00
2022-07-25T03:15:10.130Z,14.43
2022-07-25T03:17:40.299Z,13.33
2022-07-25T03:20:10.471Z,14.83
2022-07-25T03:22:38.878Z,13.10
2022-07-25T03:25:15.891Z,15.40
2022-07-25T03:27:50.001Z,14.00
2022-07-25T03:30:18.656Z,13.93
2022-07-25T03:32:48.207Z,13.13
2022-07-25T03:35:17.001Z,15.63
2022-07-25T03:37:45.696Z,12.93
2022-07-25T03:40:14.887Z,14.77
2022-07-25T03:42:44.203Z,13.80
2022-07-25T03:45:13.010Z,13.70
2022-07-25T03:47:41.034Z,15.83
2022-07-25T03:50:11.702Z,14.20
2022-07-25T03:52:40.671Z,12.67
2022-07-25T03:55:10.725Z,12.80
2022-07-25T03:57:39.073Z,14.07
2022-07-25T04:00:10.650Z,13.57
2022-07-25T04:02:38.648Z,11.10
2022-07-25T04:05:08.003Z,12.90
2022-07-25T04:07:38.349Z,13.43
2022-07-25T04:10:08.287Z,11.13
2022-07-25T04:12:36.339Z,15.03
2022-07-25T04:15:05.382Z,15.93
2022-07-25T04:17:33.432Z,13.43
2022-07-25T04:20:01.771Z,11.47
2022-07-25T04:22:29.767Z,10.67
2022-07-25T04:24:59.164Z,13.13
2022-07-25T04:27:27.127Z,10.30
2022-07-25T04:29:55.108Z,11.27
2022-07-25T04:32:23.795Z,11.20
2022-07-25T04:34:52.646Z,10.93
2022-07-25T04:37:20.960Z,9.67
2022-07-25T04:39:48.945Z,10.87
2022-07-25T04:42:18.667Z,8.67
2022-07-25T04:44:46.680Z,10.10
2022-07-25T04:47:14.993Z,9.33
2022-07-25T04:49:42.996Z,9.50
2022-07-25T04:52:11.005Z,8.63
2022-07-25T04:54:38.976Z,10.00
2022-07-25T04:57:07.360Z,8.80
2022-07-25T04:59:36.685Z,8.70
2022-07-25T05:02:05.354Z,8.90
2022-07-25T05:04:33.423Z,8.90
2022-07-25T05:07:03.968Z,9.90
2022-07-25T05:09:32.199Z,11.63
2022-07-25T05:12:00.681Z,10.03
2022-07-25T05:14:28.610Z,8.87
2022-07-25T05:16:58.433Z,9.27
2022-07-25T05:19:26.438Z,9.40
2022-07-25T05:21:54.977Z,10.90
2022-07-25T05:24:28.974Z,10.10
2022-07-25T05:26:57.625Z,8.27
2022-07-25T05:29:34.932Z,7.90
2022-07-25T05:32:05.127Z,8.73
2022-07-25T05:34:40.691Z,8.70
2022-07-25T05:37:14.411Z,8.60
2022-07-25T05:39:45.874Z,8.83
2022-07-25T05:42:14.277Z,8.60
2022-07-25T05:44:44.589Z,8.40
2022-07-25T05:47:21.088Z,8.20
2022-07-25T05:49:49.118Z,8.27
2022-07-25T05:52:17.629Z,8.80
2022-07-25T05:54:57.365Z,8.20
2022-07-25T05:57:25.909Z,8.33
2022-07-25T05:59:54.403Z,7.83
2022-07-25T06:02:26.625Z,7.60
2022-07-25T06:04:54.731Z,8.13
2022-07-25T06:07:23.128Z,8.80
2022-07-25T06:09:51.190Z,7.50
2022-07-25T06:12:20.235Z,8.27
2022-07-25T06:14:53.214Z,8.07
2022-07-25T06:17:21.943Z,8.10
2022-07-25T06:19:51.316Z,8.00
2022-07-25T06:22:20.274Z,10.10
2022-07-25T06:24:48.534Z,7.70
2022-07-25T06:27:21.008Z,8.47
2022-07-25T06:29:53.330Z,7.87
2022-07-25T06:32:22.138Z,8.13
2022-07-25T06:34:55.818Z,7.20
2022-07-25T06:37:24.866Z,6.20
2022-07-25T06:39:52.996Z,8.00
2022-07-25T06:42:23.232Z,7.23
2022-07-25T06:44:51.485Z,6.23
2022-07-25T06:47:19.942Z,6.73
2022-07-25T06:49:48.395Z,6.20
2022-07-25T06:52:18.153Z,6.43
2022-07-25T06:54:46.128Z,7.73
2022-07-25T06:57:15.048Z,6.60
2022-07-25T06:59:48.256Z,5.63
2022-07-25T07:02:17.059Z,5.30
2022-07-25T07:04:45.203Z,6.00
2022-07-25T07:07:13.720Z,5.70
2022-07-25T07:09:43.310Z,5.87
2022-07-25T07:12:11.870Z,5.40
2022-07-25T07:14:41.541Z,6.13
2022-07-25T07:17:09.574Z,5.20
2022-07-25T07:19:43.869Z,5.30
2022-07-25T07:22:11.885Z,5.03
2022-07-25T07:24:43.903Z,5.80
2022-07-25T07:27:12.397Z,5.60
2022-07-25T07:29:40.398Z,5.40
2022-07-25T07:32:09.067Z,5.10
2022-07-25T07:34:37.144Z,5.40
2022-07-25T07:37:05.214Z,6.10
2022-07-25T07:39:33.244Z,5.17
2022-07-25T07:42:03.098Z,4.30
2022-07-25T07:48:12.655Z,4.63
2022-07-25T07:50:41.153Z,4.85
2022-07-25T07:53:09.593Z,4.45
2022-07-25T07:55:45.506Z,4.03
2022-07-25T07:58:17.873Z,4.43
2022-07-25T08:00:47.680Z,6.15
2022-07-25T08:03:21.035Z,4.03
2022-07-25T08:05:51.842Z,5.13
2022-07-25T08:08:20.861Z,5.18
2022-07-25T08:10:50.063Z,4.57
2022-07-25T08:13:21.711Z,3.47
2022-07-25T08:19:30.769Z,4.03
2022-07-25T08:21:58.862Z,4.65
2022-07-25T08:24:26.850Z,4.20
2022-07-25T08:26:54.971Z,5.88
2022-07-25T08:29:28.264Z,4.30
2022-07-25T08:31:56.416Z,3.80
2022-07-25T08:34:24.622Z,4.68
2022-07-25T08:36:52.641Z,3.92
2022-07-25T08:39:21.099Z,5.43
2022-07-25T08:41:49.556Z,4.13
2022-07-25T08:44:21.886Z,4.05
2022-07-25T08:46:51.611Z,4.20
2022-07-25T08:49:20.292Z,4.60
2022-07-25T08:51:51.088Z,4.70
2022-07-25T08:54:20.400Z,4.30
2022-07-25T08:56:51.111Z,4.93
2022-07-25T08:59:19.573Z,5.40
2022-07-25T09:01:47.808Z,5.60
2022-07-25T09:04:18.481Z,4.63
2022-07-25T09:06:51.723Z,4.80
2022-07-25T09:09:20.634Z,5.33
2022-07-25T09:11:50.040Z,5.80
2022-07-25T09:14:18.550Z,6.00
2022-07-25T09:16:46.707Z,5.57
2022-07-25T09:19:19.935Z,5.40
2022-07-25T09:22:00.152Z,5.53
2022-07-25T09:24:29.043Z,5.17
2022-07-25T09:26:59.745Z,5.33
2022-07-25T09:29:30.133Z,5.53
2022-07-25T09:31:59.674Z,4.57
2022-07-25T09:34:35.172Z,9.20
2022-07-25T09:37:04.994Z,5.43
2022-07-25T09:39:45.880Z,5.20
2022-07-25T09:42:20.130Z,8.27
2022-07-25T09:45:15.414Z,6.37
2022-07-25T09:47:56.804Z,5.43
2022-07-25T09:50:30.829Z,4.20
2022-07-25T09:53:00.816Z,4.60
2022-07-25T09:55:29.826Z,4.30
2022-07-25T09:57:58.157Z,5.53
2022-07-25T10:00:28.509Z,4.93
2022-07-25T10:03:19.726Z,4.40
2022-07-25T10:06:10.083Z,4.85
2022-07-25T10:08:39.190Z,4.88
2022-07-25T10:11:09.639Z,6.68
2022-07-25T10:13:39.247Z,4.38
2022-07-25T10:16:17.351Z,3.90
2022-07-25T10:18:53.195Z,4.57
2022-07-25T10:21:27.696Z,3.80
2022-07-25T10:24:01.756Z,3.75
2022-07-25T10:26:31.200Z,5.10
2022-07-25T10:29:00.036Z,3.78
2022-07-25T10:31:36.606Z,4.30
2022-07-25T10:34:07.034Z,4.13
2022-07-25T10:36:48.486Z,4.82
2022-07-25T10:39:19.614Z,4.30
2022-07-25T10:41:54.078Z,5.25
2022-07-25T10:44:22.974Z,4.15
2022-07-25T10:46:51.105Z,3.85
2022-07-25T10:49:29.139Z,4.28
2022-07-25T10:52:04.421Z,4.43
2022-07-25T10:54:36.740Z,4.47
2022-07-25T10:57:07.362Z,4.40
2022-07-25T10:59:36.769Z,4.47
2022-07-25T11:02:07.290Z,4.50
2022-07-25T11:04:35.723Z,4.80
2022-07-25T11:07:12.856Z,3.85
2022-07-25T11:09:42.322Z,4.38
2022-07-25T11:12:15.602Z,4.35
2022-07-25T11:14:44.694Z,4.15
2022-07-25T11:17:15.861Z,4.20
2022-07-25T11:19:45.558Z,4.07
2022-07-25T11:22:17.981Z,4.97
2022-07-25T11:24:47.730Z,5.27
2022-07-25T11:27:23.652Z,5.27
2022-07-25T11:29:51.822Z,5.53
2022-07-25T11:32:20.879Z,5.40
2022-07-25T11:34:50.407Z,5.70
2022-07-25T11:37:21.203Z,5.37
2022-07-25T11:39:49.829Z,6.20
2022-07-25T11:42:20.688Z,5.03
2022-07-25T11:44:50.705Z,4.50
2022-07-25T11:47:28.105Z,6.20
2022-07-25T11:49:57.919Z,4.30
2022-07-25T11:52:31.549Z,5.60
2022-07-25T11:55:01.221Z,5.07
2022-07-25T11:57:31.155Z,5.20
2022-07-25T12:00:00.398Z,6.90
2022-07-25T12:02:32.598Z,5.37
2022-07-25T12:05:02.676Z,5.97
2022-07-25T12:07:46.905Z,6.23
2022-07-25T12:10:18.063Z,5.93
2022-07-25T12:12:49.069Z,5.20
2022-07-25T12:15:22.095Z,5.70
2022-07-25T12:17:51.431Z,6.00
2022-07-25T12:20:21.424Z,5.23
2022-07-25T12:22:53.543Z,5.20
2022-07-25T12:25:23.633Z,8.40
2022-07-25T12:27:53.966Z,6.77
2022-07-25T12:30:22.015Z,5.63
2022-07-25T12:32:50.786Z,6.10
2022-07-25T12:35:18.945Z,6.03
2022-07-25T12:37:47.940Z,6.33
2022-07-25T12:40:17.836Z,6.50
2022-07-25T12:42:47.237Z,5.93
2022-07-25T12:45:15.714Z,5.93
2022-07-25T12:47:46.151Z,6.00
2022-07-25T12:50:15.149Z,6.40
2022-07-25T12:52:44.230Z,5.93
2022-07-25T12:55:14.104Z,5.83
2022-07-25T12:57:44.428Z,5.40
2022-07-25T13:00:16.064Z,7.50
2022-07-25T13:02:45.349Z,5.30
2022-07-25T13:05:13.473Z,7.20
2022-07-25T13:07:42.082Z,6.67
2022-07-25T13:10:10.538Z,6.80
2022-07-25T13:12:39.082Z,6.07
2022-07-25T13:15:09.707Z,6.00
2022-07-25T13:17:38.392Z,6.47
2022-07-25T13:20:07.389Z,6.83
2022-07-25T13:22:36.015Z,8.83
2022-07-25T13:25:04.650Z,6.47
2022-07-25T13:27:32.742Z,6.63
2022-07-25T13:30:01.323Z,5.77
2022-07-25T13:32:31.919Z,7.63
2022-07-25T13:35:00.023Z,6.90
2022-07-25T13:37:28.310Z,7.17
2022-07-25T13:39:56.545Z,7.67
2022-07-25T13:42:24.852Z,7.23
2022-07-25T13:44:53.609Z,7.30
2022-07-25T13:47:26.904Z,6.37
2022-07-25T13:50:00.404Z,6.93
2022-07-25T13:52:28.490Z,6.90
2022-07-25T13:54:57.170Z,7.07
2022-07-25T13:57:25.343Z,6.33
2022-07-25T13:59:53.529Z,6.40
2022-07-25T14:02:22.219Z,7.60
2022-07-25T14:04:50.285Z,6.77
2022-07-25T14:07:19.867Z,6.00
2022-07-25T14:09:48.550Z,6.93
2022-07-25T14:12:16.667Z,6.53
2022-07-25T14:14:45.163Z,6.63
2022-07-25T14:17:13.522Z,6.90
2022-07-25T14:19:41.811Z,7.07
2022-07-25T14:22:10.404Z,7.43
2022-07-25T14:24:39.958Z,6.30
2022-07-25T14:27:08.011Z,7.10
2022-07-25T14:29:38.441Z,7.40
2022-07-25T14:32:07.910Z,6.60
2022-07-25T14:34:36.293Z,6.40
2022-07-25T14:37:06.460Z,6.47
2022-07-25T14:39:36.397Z,5.20
2022-07-25T14:42:06.770Z,5.73
2022-07-25T14:44:34.798Z,5.93
2022-07-25T14:47:09.015Z,5.73
2022-07-25T14:49:41.948Z,5.20
2022-07-25T14:52:10.098Z,4.40
2022-07-25T14:54:38.189Z,5.07
2022-07-25T14:57:09.223Z,4.90
2022-07-25T14:59:37.742Z,4.27
2022-07-25T15:02:06.309Z,4.57
2022-07-25T15:04:34.658Z,6.97
2022-07-25T15:07:02.809Z,4.90
2022-07-25T15:09:31.371Z,4.30
2022-07-25T15:11:59.464Z,4.77
2022-07-25T15:14:29.945Z,3.93
2022-07-25T15:16:58.282Z,3.60
2022-07-25T15:19:26.636Z,3.37
2022-07-25T15:21:55.272Z,5.70
2022-07-25T15:24:28.664Z,4.87
2022-07-25T15:26:57.640Z,5.23
2022-07-25T15:29:25.678Z,4.37
2022-07-25T15:31:55.221Z,5.50
2022-07-25T15:34:23.473Z,7.00
2022-07-25T15:36:52.260Z,3.83
2022-07-25T15:39:20.538Z,3.47
2022-07-25T15:41:49.140Z,4.10
2022-07-25T15:44:17.276Z,3.93
2022-07-25T15:46:46.519Z,5.60
2022-07-25T15:49:17.848Z,4.50
2022-07-25T15:55:32.957Z,4.80
2022-07-25T15:58:49.047Z,5.80
2022-07-25T16:05:06.658Z,8.57
2022-07-25T16:07:34.974Z,5.03
2022-07-25T16:10:03.024Z,7.63
2022-07-25T16:12:31.045Z,4.50
2022-07-25T16:14:59.030Z,4.07
2022-07-25T16:17:28.830Z,4.73
2022-07-25T16:19:57.051Z,5.00
2022-07-25T16:22:27.095Z,4.57
2022-07-25T16:24:55.082Z,5.40
2022-07-25T16:27:23.510Z,4.73
2022-07-25T16:29:53.049Z,5.40
2022-07-25T16:32:21.187Z,5.03
2022-07-25T16:34:49.452Z,5.20
2022-07-25T16:37:17.861Z,5.67
2022-07-25T16:39:47.293Z,7.33
2022-07-25T16:42:19.541Z,5.87
2022-07-25T16:44:48.688Z,6.00
2022-07-25T16:47:17.086Z,7.20
2022-07-25T16:49:45.169Z,4.77
2022-07-25T16:52:14.312Z,5.60
2022-07-25T16:54:42.528Z,5.80
2022-07-25T16:57:11.925Z,5.70
2022-07-25T16:59:40.273Z,4.77
2022-07-25T17:02:08.801Z,6.03
2022-07-25T17:04:37.680Z,11.17
2022-07-25T17:07:05.856Z,7.63
2022-07-25T17:09:33.859Z,5.00
2022-07-25T17:12:02.682Z,8.87
2022-07-25T17:14:32.390Z,9.83
2022-07-25T17:17:00.840Z,5.77
2022-07-25T17:19:33.839Z,5.60
2022-07-25T17:22:02.308Z,5.70
2022-07-25T17:24:30.304Z,6.90
2022-07-25T17:26:58.766Z,8.60
2022-07-25T17:29:27.443Z,10.37
2022-07-25T17:31:56.928Z,7.37
2022-07-25T17:34:26.703Z,10.73
2022-07-25T17:36:54.901Z,5.90
2022-07-25T17:39:23.023Z,9.40
2022-07-25T17:41:53.799Z,6.20
2022-07-25T17:44:21.792Z,6.30
2022-07-25T17:46:50.899Z,11.40
2022-07-25T17:49:21.709Z,6.07
2022-07-25T17:51:50.489Z,5.63
2022-07-25T17:54:18.560Z,7.33
2022-07-25T17:56:47.277Z,7.27
2022-07-25T17:59:15.824Z,7.53
2022-07-25T18:01:43.978Z,8.27
2022-07-25T18:04:12.409Z,10.23
2022-07-25T18:06:41.889Z,5.93
2022-07-25T18:09:10.524Z,6.53
2022-07-25T18:11:38.535Z,7.07
2022-07-25T18:14:07.077Z,12.07
2022-07-25T18:16:35.336Z,7.50
2022-07-25T18:19:03.442Z,6.30
2022-07-25T18:21:31.411Z,11.13
2022-07-25T18:24:01.261Z,6.13
2022-07-25T18:26:29.516Z,7.00
2022-07-25T18:28:57.988Z,6.70
2022-07-25T18:31:25.979Z,7.47
2022-07-25T18:33:54.520Z,7.80
2022-07-25T18:36:22.581Z,6.67
2022-07-25T18:38:54.214Z,9.20
2022-07-25T18:41:29.732Z,6.80
2022-07-25T18:43:58.765Z,6.90
2022-07-25T18:46:30.143Z,8.47
2022-07-25T18:49:00.094Z,8.20
2022-07-25T18:51:28.196Z,7.37
2022-07-25T18:53:56.728Z,7.30
2022-07-25T18:56:26.146Z,8.13
2022-07-25T18:58:54.690Z,7.23
2022-07-25T19:01:22.735Z,7.27
2022-07-25T19:03:51.266Z,10.10
2022-07-25T19:06:19.307Z,6.60
2022-07-25T19:08:48.386Z,7.60
2022-07-25T19:11:16.400Z,9.20
2022-07-25T19:13:50.694Z,8.37
2022-07-25T19:16:20.055Z,16.57
2022-07-25T19:18:48.286Z,16.90
2022-07-25T19:21:16.860Z,13.67
2022-07-25T19:23:50.557Z,21.20
2022-07-25T19:26:19.708Z,19.20
2022-07-25T19:28:50.194Z,19.70
2022-07-25T19:31:18.512Z,17.57
2022-07-25T19:33:47.340Z,21.17
2022-07-25T19:36:15.413Z,20.67
2022-07-25T19:38:43.894Z,22.40
2022-07-25T19:41:12.175Z,20.60
2022-07-25T19:43:40.628Z,20.73
2022-07-25T19:46:10.184Z,18.30
2022-07-25T19:48:38.691Z,25.83
2022-07-25T19:51:07.025Z,18.33
2022-07-25T19:53:35.643Z,18.43
2022-07-25T19:56:03.763Z,17.00
2022-07-25T19:58:35.404Z,20.83
2022-07-25T20:01:06.661Z,19.37
2022-07-25T20:03:36.249Z,20.93
2022-07-25T20:06:08.343Z,18.57
2022-07-25T20:08:36.934Z,20.83
2022-07-25T20:11:05.491Z,23.07
2022-07-25T20:13:33.520Z,21.90
2022-07-25T20:16:02.613Z,20.50
2022-07-25T20:18:30.849Z,24.00
2022-07-25T20:21:00.697Z,22.63
2022-07-25T20:23:28.861Z,19.63
2022-07-25T20:25:57.326Z,19.53
2022-07-25T20:28:25.675Z,15.73
2022-07-25T20:30:56.259Z,24.87
2022-07-25T20:33:27.155Z,19.97
2022-07-25T20:35:56.071Z,17.90
2022-07-25T20:38:28.837Z,16.67
2022-07-25T20:40:57.359Z,19.37
2022-07-25T20:43:25.862Z,20.57
2022-07-25T20:45:55.253Z,18.53
2022-07-25T20:48:23.702Z,19.00
2022-07-25T20:50:51.851Z,18.00
2022-07-25T20:53:20.175Z,18.23
2022-07-25T20:55:49.591Z,16.33
2022-07-25T20:58:18.138Z,21.20
2022-07-25T21:00:47.121Z,16.63
2022-07-25T21:03:17.065Z,20.10
2022-07-25T21:05:45.125Z,22.03
2022-07-25T21:08:13.521Z,18.10
2022-07-25T21:10:41.571Z,25.50
2022-07-25T21:13:10.989Z,22.33
2022-07-25T21:15:38.965Z,20.53
2022-07-25T21:18:07.233Z,22.40
2022-07-25T21:20:37.310Z,19.17
2022-07-25T21:23:06.578Z,20.07
2022-07-25T21:25:34.600Z,19.67
2022-07-25T21:28:03.076Z,20.30
2022-07-25T21:30:32.572Z,19.93
2022-07-25T21:33:00.969Z,19.63
2022-07-25T21:35:29.167Z,23.63
2022-07-25T21:37:59.077Z,23.33
2022-07-25T21:40:27.235Z,23.50
2022-07-25T21:42:55.962Z,16.53
2022-07-25T21:45:24.409Z,18.73
2022-07-25T21:47:54.331Z,18.10
2022-07-25T21:50:43.797Z,20.23
2022-07-25T21:53:14.018Z,16.87
2022-07-25T21:55:42.122Z,18.93
2022-07-25T21:58:10.683Z,14.00
2022-07-25T22:00:45.190Z,13.27
2022-07-25T22:03:15.490Z,15.00
2022-07-25T22:05:43.527Z,14.00
2022-07-25T22:08:11.970Z,22.33
2022-07-25T22:10:40.041Z,15.70
2022-07-25T22:13:13.033Z,12.97
2022-07-25T22:15:41.195Z,17.37
2022-07-25T22:18:09.786Z,12.70
2022-07-25T22:20:39.625Z,16.20
2022-07-25T22:23:08.430Z,16.17
2022-07-25T22:25:36.901Z,12.70
2022-07-25T22:28:05.030Z,13.97
2022-07-25T22:30:35.202Z,18.53
2022-07-25T22:33:03.284Z,13.17
2022-07-25T22:35:31.955Z,15.60
2022-07-25T22:38:01.365Z,16.30
2022-07-25T22:40:29.848Z,14.27
2022-07-25T22:42:58.058Z,14.80
2022-07-25T22:45:26.588Z,14.83
2022-07-25T22:47:54.663Z,16.73
2022-07-25T22:50:23.401Z,15.37
2022-07-25T22:52:51.425Z,16.87
2022-07-25T22:55:21.261Z,15.20
2022-07-25T22:57:49.729Z,13.93
2022-07-25T23:00:18.671Z,15.50
2022-07-25T23:02:46.729Z,17.13
2022-07-25T23:05:16.535Z,16.17
2022-07-25T23:07:44.563Z,14.73
2022-07-25T23:10:12.961Z,14.90
2022-07-25T23:12:42.345Z,11.90
2022-07-25T23:15:11.158Z,12.40
2022-07-25T23:17:39.181Z,11.47
2022-07-25T23:20:08.456Z,13.10
2022-07-25T23:22:37.037Z,11.80
2022-07-25T23:25:05.587Z,17.37
2022-07-25T23:27:35.021Z,13.47
2022-07-25T23:30:05.989Z,10.57
2022-07-25T23:32:34.753Z,16.40
2022-07-25T23:35:03.298Z,15.73
2022-07-25T23:37:31.299Z,12.97
2022-07-25T23:40:00.105Z,13.03
2022-07-25T23:42:28.349Z,11.57
2022-07-25T23:44:56.711Z,10.93
2022-07-25T23:47:40.574Z,12.67
2022-07-25T23:50:11.154Z,12.03
2022-07-25T23:52:39.187Z,13.70
2022-07-25T23:55:08.015Z,12.47
2022-07-25T23:57:35.990Z,10.60
